Time;durP1;ratioP1;P1;durP2;ratioP2;P2;SDS_P1;SDS_P2;PMS_P1;PMS_P2;Temp;Humidity;BMP_temperature;BMP_pressure;BME280_temperature;BME280_humidity;BME280_pressure;Samples;Min_cycle;Max_cycle;Signal;HPM_P1;HPM_P2
2021/10/21 00:03:18;;;;;;;5.82;4.80;;;;;;;12.71;89.40;98237.19;8487702;33;20192;-73
2021/10/21 00:08:21;;;;;;;7.70;4.65;;;;;;;12.77;89.26;98214.88;8483997;33;20245;-73
2021/10/21 00:13:26;;;;;;;6.85;4.20;;;;;;;12.93;88.59;98189.53;8482504;33;20145;-74
2021/10/21 00:18:29;;;;;;;5.80;4.60;;;;;;;13.01;87.03;98173.25;8459613;33;20237;-73
2021/10/21 00:23:33;;;;;;;11.02;4.65;;;;;;;13.08;88.01;98126.66;8484607;33;20224;-73
2021/10/21 00:28:38;;;;;;;6.65;4.30;;;;;;;13.13;86.44;98108.84;8461821;33;20141;-73
2021/10/21 00:33:41;;;;;;;7.15;5.00;;;;;;;13.11;86.76;98070.50;8489305;33;20248;-73
2021/10/21 00:38:44;;;;;;;5.78;3.72;;;;;;;13.24;85.27;98037.41;8501192;33;20226;-72
2021/10/21 00:43:49;;;;;;;5.70;3.60;;;;;;;13.19;83.93;98016.47;8504034;33;20422;-73
2021/10/21 00:48:51;;;;;;;4.55;3.65;;;;;;;13.35;82.58;97988.31;8503663;33;20435;-74
2021/10/21 00:53:54;;;;;;;4.03;3.50;;;;;;;13.47;81.76;97964.34;8503409;33;20396;-73
2021/10/21 00:58:59;;;;;;;4.15;3.25;;;;;;;13.61;79.95;97930.19;8498064;33;20560;-73
2021/10/21 01:04:04;;;;;;;6.70;3.42;;;;;;;13.61;78.49;97925.59;8489709;33;20875;-73
2021/10/21 01:09:07;;;;;;;5.57;3.30;;;;;;;13.65;78.68;97918.75;8490006;33;20648;-73
2021/10/21 01:14:11;;;;;;;4.75;3.13;;;;;;;13.83;77.85;97901.16;8489103;33;20175;-74
2021/10/21 01:19:20;;;;;;;5.60;3.05;;;;;;;13.82;76.36;97869.81;8489094;33;20424;-73
2021/10/21 01:24:26;;;;;;;3.85;2.90;;;;;;;13.84;75.68;97879.34;8489591;33;20153;-73
2021/10/21 01:29:29;;;;;;;3.78;2.67;;;;;;;13.94;76.83;97890.59;8489954;33;20541;-74
2021/10/21 01:34:32;;;;;;;5.03;2.53;;;;;;;13.44;78.87;97886.56;8498494;33;20232;-73
2021/10/21 01:39:36;;;;;;;6.05;3.70;;;;;;;12.64;84.76;97861.13;8503822;33;20606;-73
2021/10/21 01:44:42;;;;;;;3.95;2.72;;;;;;;12.11;88.90;97901.94;8506386;33;20528;-73
2021/10/21 01:49:45;;;;;;;5.53;2.95;;;;;;;12.06;89.93;97901.69;8509831;33;20133;-76
2021/10/21 01:54:50;;;;;;;7.10;3.20;;;;;;;12.08;89.94;97840.44;8515614;33;20255;-73
2021/10/21 01:59:53;;;;;;;4.07;2.80;;;;;;;11.93;89.73;97784.88;8519014;33;20418;-74
2021/10/21 02:04:57;;;;;;;3.67;2.40;;;;;;;11.86;90.41;97762.47;8510060;33;20825;-74
2021/10/21 02:10:01;;;;;;;4.03;2.70;;;;;;;12.08;90.07;97728.28;8504204;33;20838;-73
2021/10/21 02:15:06;;;;;;;8.18;5.55;;;;;;;12.08;91.84;97722.88;8503118;33;21885;-73
2021/10/21 02:20:11;;;;;;;7.37;3.70;;;;;;;12.13;91.80;97684.63;8502961;33;21010;-74
2021/10/21 02:25:15;;;;;;;6.97;4.22;;;;;;;12.13;91.71;97676.56;8492741;33;20148;-74
2021/10/21 02:30:21;;;;;;;6.95;3.90;;;;;;;12.04;91.99;97675.91;8487786;33;20437;-73
2021/10/21 02:35:24;;;;;;;6.95;3.67;;;;;;;11.83;92.44;97649.94;8474265;33;21014;-74
2021/10/21 02:40:29;;;;;;;5.80;3.60;;;;;;;11.91;92.51;97643.56;8487608;33;20885;-73
2021/10/21 02:45:33;;;;;;;3.45;2.70;;;;;;;12.00;91.00;97642.34;8486231;33;20957;-74
2021/10/21 02:50:36;;;;;;;4.60;2.40;;;;;;;11.95;90.11;97634.88;8485430;33;20187;-73
2021/10/21 02:55:40;;;;;;;3.38;2.70;;;;;;;12.15;88.60;97626.09;8486305;33;20196;-73
2021/10/21 03:00:43;;;;;;;2.38;1.75;;;;;;;12.03;85.79;97617.75;8487543;33;20624;-73
2021/10/21 03:05:46;;;;;;;4.30;2.25;;;;;;;12.24;84.92;97597.13;8488508;33;20474;-73
2021/10/21 03:10:51;;;;;;;2.75;1.83;;;;;;;12.06;84.83;97630.78;8478517;33;20434;-73
2021/10/21 03:15:54;;;;;;;2.17;1.70;;;;;;;12.02;83.81;97632.22;8500815;33;20239;-73
2021/10/21 03:20:57;;;;;;;1.73;1.45;;;;;;;12.19;83.21;97653.41;8497862;33;20760;-74
2021/10/21 03:26:01;;;;;;;1.77;1.27;;;;;;;11.85;82.67;97645.19;8486024;33;20303;-74
2021/10/21 03:31:04;;;;;;;1.40;1.25;;;;;;;10.84;82.40;97674.19;8462026;33;20438;-74
2021/10/21 03:36:07;;;;;;;2.38;1.75;;;;;;;10.79;81.74;97673.91;8485028;33;20438;-74
2021/10/21 03:41:12;;;;;;;1.55;1.23;;;;;;;10.82;81.15;97695.84;8485383;33;20467;-74
2021/10/21 03:46:15;;;;;;;2.00;1.30;;;;;;;10.06;83.07;97668.53;8484617;33;20234;-74
2021/10/21 03:51:18;;;;;;;2.67;1.30;;;;;;;10.20;81.89;97699.03;8485879;33;20536;-74
2021/10/21 03:56:23;;;;;;;1.80;1.00;;;;;;;10.08;78.64;97708.59;8457219;33;20608;-73
2021/10/21 04:01:26;;;;;;;2.90;0.98;;;;;;;10.20;75.78;97750.00;8483999;33;20432;-73
2021/10/21 04:06:29;;;;;;;1.40;0.90;;;;;;;10.39;74.61;97709.22;8485173;33;20505;-73
2021/10/21 04:11:34;;;;;;;1.65;1.00;;;;;;;10.41;73.01;97692.09;8460901;33;20510;-74
2021/10/21 04:16:37;;;;;;;3.80;1.10;;;;;;;10.27;75.11;97717.94;8482881;33;20157;-73
2021/10/21 04:21:40;;;;;;;3.92;1.05;;;;;;;9.65;77.60;97698.50;8489248;33;20877;-74
2021/10/21 04:26:44;;;;;;;5.38;1.48;;;;;;;9.77;78.23;97687.31;8482613;33;20180;-74
2021/10/21 04:31:47;;;;;;;4.10;1.33;;;;;;;9.88;77.30;97698.44;8479014;33;20464;-74
2021/10/21 04:36:51;;;;;;;2.40;1.30;;;;;;;9.89;77.05;97693.91;8480835;33;20453;-74
2021/10/21 04:41:55;;;;;;;3.22;1.00;;;;;;;10.02;74.65;97683.38;8483816;33;20133;-73
2021/10/21 04:46:58;;;;;;;2.92;0.90;;;;;;;10.00;73.98;97681.88;8486792;33;20575;-73
2021/10/21 04:52:02;;;;;;;1.33;1.10;;;;;;;10.23;74.00;97698.69;8488636;33;20511;-74
2021/10/21 04:57:07;;;;;;;4.90;1.10;;;;;;;9.98;77.30;97657.09;8480631;33;20489;-73
2021/10/21 05:02:10;;;;;;;3.97;1.80;;;;;;;9.96;75.57;97668.03;8480171;33;20195;-74
2021/10/21 05:07:13;;;;;;;1.73;1.17;;;;;;;10.04;75.53;97656.34;8484077;33;20440;-74
2021/10/21 05:12:17;;;;;;;1.10;0.88;;;;;;;9.76;76.13;97661.53;8470657;33;21129;-74
2021/10/21 05:17:20;;;;;;;1.67;0.90;;;;;;;10.07;75.11;97630.00;8503567;33;20428;-74
2021/10/21 05:22:24;;;;;;;4.55;1.10;;;;;;;10.04;74.92;97632.22;8504687;33;20494;-74
2021/10/21 05:27:28;;;;;;;3.45;1.10;;;;;;;10.04;74.08;97635.75;8503972;33;20363;-74
2021/10/21 05:32:31;;;;;;;3.42;1.23;;;;;;;10.14;73.58;97625.53;8508269;33;20457;-74
2021/10/21 05:37:34;;;;;;;1.75;0.82;;;;;;;10.25;74.17;97639.47;8508041;33;20465;-74
2021/10/21 05:42:39;;;;;;;2.97;0.80;;;;;;;9.49;77.37;97651.28;8508223;33;20383;-74
2021/10/21 05:47:43;;;;;;;1.10;1.00;;;;;;;9.51;79.02;97641.19;8504612;33;20777;-74
2021/10/21 05:52:46;;;;;;;0.85;0.70;;;;;;;9.38;78.93;97642.84;8468066;33;20193;-74
2021/10/21 05:57:53;;;;;;;1.08;0.98;;;;;;;9.00;82.68;97633.00;8476890;33;20219;-75
2021/10/21 06:02:56;;;;;;;1.45;0.93;;;;;;;8.80;84.59;97639.84;8496304;33;20416;-75
2021/10/21 06:08:00;;;;;;;0.63;0.63;;;;;;;8.79;84.86;97647.06;8489125;33;20463;-76
2021/10/21 06:13:05;;;;;;;1.88;0.93;;;;;;;8.90;84.33;97632.41;8491368;33;21790;-74
2021/10/21 06:18:11;;;;;;;5.75;1.27;;;;;;;8.91;84.34;97642.09;8487860;33;20640;-73
2021/10/21 06:23:14;;;;;;;1.75;0.88;;;;;;;8.98;84.86;97648.41;8487593;33;20421;-74
2021/10/21 06:28:19;;;;;;;1.27;0.90;;;;;;;8.77;85.95;97622.31;8464818;33;20416;-73
2021/10/21 06:33:22;;;;;;;1.33;1.20;;;;;;;8.66;86.29;97660.19;8486826;33;20141;-73
2021/10/21 06:38:25;;;;;;;1.17;0.82;;;;;;;8.60;87.41;97691.19;8487263;33;20666;-74
2021/10/21 06:43:29;;;;;;;0.90;0.90;;;;;;;8.55;88.49;97674.00;8486767;33;21143;-74
2021/10/21 06:48:33;;;;;;;2.17;0.93;;;;;;;8.36;89.43;97694.81;8488286;33;20263;-74
2021/10/21 06:53:36;;;;;;;0.77;0.77;;;;;;;8.53;89.02;97698.25;8491064;33;20426;-72
2021/10/21 06:58:41;;;;;;;1.80;1.10;;;;;;;8.54;88.33;97704.44;8500535;33;20597;-73
2021/10/21 07:03:44;;;;;;;2.83;1.23;;;;;;;8.93;87.02;97714.22;8510617;33;20157;-73
2021/10/21 07:08:47;;;;;;;3.15;1.40;;;;;;;9.00;85.95;97723.22;8522384;33;20213;-73
2021/10/21 07:13:51;;;;;;;1.50;1.10;;;;;;;9.32;83.68;97735.47;8519012;33;20179;-73
2021/10/21 07:18:54;;;;;;;4.32;1.60;;;;;;;9.27;82.91;97730.69;8514213;33;20458;-72
2021/10/21 07:23:57;;;;;;;1.90;1.60;;;;;;;9.35;83.59;97761.94;8526128;33;20541;-72
2021/10/21 07:29:02;;;;;;;1.65;1.27;;;;;;;8.81;86.44;97796.78;8559536;33;21037;-72
2021/10/21 07:34:05;;;;;;;2.42;2.10;;;;;;;8.82;87.67;97839.41;8553607;33;21973;-73
2021/10/21 07:39:08;;;;;;;4.43;2.22;;;;;;;8.65;89.44;97826.28;8545580;33;20513;-74
2021/10/21 07:44:12;;;;;;;5.90;2.15;;;;;;;8.38;92.80;97871.16;8545863;33;20421;-74
2021/10/21 07:49:16;;;;;;;4.72;2.13;;;;;;;8.12;100.00;98021.13;8544455;33;20938;-73
2021/10/21 07:54:21;;;;;;;1.98;1.00;;;;;;;6.76;97.29;98066.47;8544148;33;20883;-73
2021/10/21 07:59:28;;;;;;;2.17;0.90;;;;;;;6.44;96.30;98079.56;8547322;33;20440;-74
2021/10/21 08:04:33;;;;;;;1.30;1.20;;;;;;;6.30;96.15;98108.44;8545299;33;20443;-73
2021/10/21 08:09:36;;;;;;;1.20;1.10;;;;;;;6.37;96.31;98154.03;8549277;33;20242;-73
2021/10/21 08:14:40;;;;;;;1.40;1.30;;;;;;;6.61;96.21;98193.44;8548494;33;20184;-74
2021/10/21 08:19:43;;;;;;;2.08;1.70;;;;;;;6.76;95.92;98242.56;8548005;33;20423;-73
2021/10/21 08:24:47;;;;;;;5.03;2.90;;;;;;;6.92;95.02;98279.28;8548004;33;20455;-72
2021/10/21 08:29:52;;;;;;;3.45;1.80;;;;;;;6.71;94.79;98314.22;8548350;33;20148;-72
2021/10/21 08:34:55;;;;;;;3.15;1.92;;;;;;;6.61;94.93;98335.63;8548201;33;20265;-73
2021/10/21 08:39:58;;;;;;;3.75;2.70;;;;;;;6.84;94.60;98384.09;8546294;33;20186;-73
2021/10/21 08:45:02;;;;;;;1.85;1.52;;;;;;;6.89;95.44;98422.88;8546108;33;20148;-73
2021/10/21 08:50:07;;;;;;;2.15;1.83;;;;;;;6.95;94.48;98435.63;8545473;33;20908;-73
2021/10/21 08:55:11;;;;;;;2.50;2.10;;;;;;;7.16;94.57;98468.25;8543569;33;20433;-73
2021/10/21 09:00:16;;;;;;;2.58;1.80;;;;;;;7.14;94.46;98496.91;8541596;33;21076;-73
2021/10/21 09:05:29;;;;;;;1.50;1.25;;;;;;;7.30;93.70;98514.97;8539292;33;20598;-73
2021/10/21 09:10:32;;;;;;;2.90;1.38;;;;;;;7.44;93.65;98535.00;8508035;33;20292;-73
2021/10/21 09:15:36;;;;;;;4.25;1.80;;;;;;;7.38;93.88;98562.31;8433846;33;21037;-73
2021/10/21 09:20:43;;;;;;;2.38;1.58;;;;;;;7.59;92.63;98568.22;8434365;33;20261;-72
2021/10/21 09:25:47;;;;;;;4.20;2.35;;;;;;;7.77;92.47;98597.66;8433894;33;20410;-72
2021/10/21 09:30:57;;;;;;;2.33;1.67;;;;;;;7.66;92.38;98630.78;8434455;33;20967;-72
2021/10/21 09:36:01;;;;;;;4.00;2.50;;;;;;;7.90;91.07;98627.56;8433512;33;20512;-72
2021/10/21 09:41:17;;;;;;;2.47;2.28;;;;;;;7.90;89.29;98658.78;8410247;33;20513;-72
2021/10/21 09:46:33;;;;;;;4.68;2.65;;;;;;;8.12;88.75;98671.75;8408447;33;20418;-72
2021/10/21 09:51:36;;;;;;;12.93;5.00;;;;;;;8.28;87.47;98687.13;8409750;33;21006;-70
2021/10/21 09:57:01;;;;;;;7.22;2.05;;;;;;;8.38;86.11;98709.28;8433438;33;20427;-72
2021/10/21 10:02:15;;;;;;;6.47;2.28;;;;;;;8.75;84.76;98683.41;8429381;33;20146;-71
2021/10/21 10:07:20;;;;;;;2.75;1.58;;;;;;;8.45;82.91;98719.38;8424983;33;20288;-72
2021/10/21 10:12:24;;;;;;;4.43;2.03;;;;;;;8.20;84.95;98753.91;8423647;33;20969;-71
2021/10/21 10:17:30;;;;;;;4.80;2.10;;;;;;;8.04;83.85;98767.09;8422059;33;20146;-72
2021/10/21 10:22:36;;;;;;;7.03;2.33;;;;;;;8.35;81.77;98765.78;8423534;33;20162;-72
2021/10/21 10:27:54;;;;;;;7.38;2.42;;;;;;;8.53;80.67;98807.81;8426455;33;20480;-72
2021/10/21 10:32:58;;;;;;;3.00;1.80;;;;;;;9.21;78.09;98785.91;8458118;33;20167;-73
2021/10/21 10:38:03;;;;;;;3.90;2.75;;;;;;;9.33;77.56;98787.38;8461886;33;20419;-73
2021/10/21 10:43:07;;;;;;;5.25;2.55;;;;;;;9.42;75.25;98813.22;8471135;33;20435;-73
2021/10/21 10:48:54;;;;;;;3.38;2.17;;;;;;;9.40;73.23;98820.56;8460469;33;20275;-72
2021/10/21 10:53:57;;;;;;;6.63;2.63;;;;;;;9.51;71.29;98841.75;8456245;33;20919;-72
2021/10/21 10:59:29;;;;;;;5.47;2.20;;;;;;;9.50;71.03;98791.84;8480652;33;20424;-72
2021/10/21 11:05:02;;;;;;;2.85;1.73;;;;;;;10.25;68.50;98819.97;8483092;33;20413;-73
2021/10/21 11:10:41;;;;;;;3.65;1.73;;;;;;;9.79;69.03;98835.44;8479008;33;20490;-73
2021/10/21 11:15:44;;;;;;;7.07;2.25;;;;;;;8.91;74.44;98864.78;8478541;33;20480;-74
2021/10/21 11:20:49;;;;;;;4.25;3.30;;;;;;;8.64;77.38;98885.25;8481181;33;20546;-73
2021/10/21 11:25:55;;;;;;;3.40;1.98;;;;;;;8.09;82.86;98883.31;8477515;33;20711;-75
2021/10/21 11:31:04;;;;;;;3.15;2.05;;;;;;;7.61;84.19;98883.38;8488689;33;20176;-74
2021/10/21 11:36:10;;;;;;;2.75;1.77;;;;;;;7.42;81.72;98908.28;8466870;33;20419;-73
2021/10/21 11:41:13;;;;;;;1.83;1.50;;;;;;;7.91;80.51;98934.00;8463051;33;20190;-73
2021/10/21 11:46:22;;;;;;;1.77;1.40;;;;;;;7.50;83.11;98925.28;8505493;33;20594;-74
2021/10/21 11:51:30;;;;;;;2.30;1.90;;;;;;;7.20;87.31;98912.91;8506960;33;20155;-74
2021/10/21 11:56:33;;;;;;;2.47;2.17;;;;;;;6.89;88.83;98935.34;8501952;33;20134;-74
2021/10/21 12:01:36;;;;;;;4.93;2.75;;;;;;;6.99;89.57;98930.84;8519843;33;20140;-74
2021/10/21 12:06:42;;;;;;;5.38;3.30;;;;;;;7.22;88.85;98921.63;8524264;33;20916;-74
2021/10/21 12:11:46;;;;;;;4.45;2.75;;;;;;;7.12;87.33;98906.56;8518173;33;20432;-73
2021/10/21 12:16:49;;;;;;;2.83;2.05;;;;;;;7.22;85.87;98950.16;8544393;33;20702;-73
2021/10/21 12:22:04;;;;;;;9.57;5.78;;;;;;;7.38;84.18;98909.56;8516233;33;20474;-73
2021/10/21 12:27:07;;;;;;;5.00;3.90;;;;;;;7.65;82.70;98911.50;8446368;33;20486;-72
2021/10/21 12:32:12;;;;;;;4.88;3.10;;;;;;;7.93;82.61;98891.94;8464684;33;20599;-72
2021/10/21 12:37:22;;;;;;;5.18;3.97;;;;;;;8.40;80.29;98896.44;8490399;33;20997;-71
2021/10/21 12:42:27;;;;;;;5.80;4.00;;;;;;;8.31;79.59;98900.84;8496085;33;20466;-72
2021/10/21 12:47:33;;;;;;;5.07;3.58;;;;;;;8.11;79.73;98908.06;8498810;33;20413;-72
2021/10/21 12:52:41;;;;;;;3.35;2.42;;;;;;;8.64;76.77;98927.22;8498172;33;20530;-73
2021/10/21 12:57:49;;;;;;;3.35;3.05;;;;;;;8.68;76.71;98920.59;8500747;33;20250;-72
2021/10/21 13:03:01;;;;;;;5.22;3.15;;;;;;;8.22;76.41;98991.81;8487303;33;20867;-71
2021/10/21 13:08:07;;;;;;;3.20;2.60;;;;;;;8.33;76.52;98911.38;8490675;33;20287;-72
2021/10/21 13:13:22;;;;;;;3.75;1.83;;;;;;;8.45;75.91;98915.59;8490252;33;20445;-73
2021/10/21 13:18:25;;;;;;;1.23;1.10;;;;;;;8.54;74.78;98914.72;8491894;33;20171;-73
2021/10/21 13:23:30;;;;;;;2.53;1.65;;;;;;;8.81;74.64;98923.78;8485937;33;20977;-73
2021/10/21 13:28:35;;;;;;;5.68;1.38;;;;;;;8.79;73.74;98949.84;8488672;33;20137;-73
2021/10/21 13:33:38;;;;;;;5.13;2.45;;;;;;;8.79;75.26;98964.06;8490451;33;20145;-74
2021/10/21 13:38:42;;;;;;;2.35;1.30;;;;;;;6.16;87.29;99060.69;8488667;33;20261;-74
2021/10/21 13:43:45;;;;;;;3.63;1.88;;;;;;;5.56;95.83;99064.78;8464078;33;20409;-75
2021/10/21 13:48:48;;;;;;;3.13;1.73;;;;;;;5.40;94.76;99076.69;8487202;33;21123;-74
2021/10/21 13:53:53;;;;;;;1.73;1.40;;;;;;;5.56;94.57;99086.09;8482790;33;20436;-74
2021/10/21 13:58:56;;;;;;;1.17;1.10;;;;;;;5.46;94.26;99104.63;8486364;33;20473;-74
2021/10/21 14:04:00;;;;;;;1.35;0.70;;;;;;;5.28;92.35;99122.91;8489274;33;20450;-74
2021/10/21 14:09:05;;;;;;;1.85;1.00;;;;;;;6.32;94.00;99146.44;8484857;33;20569;-74
2021/10/21 14:14:08;;;;;;;1.00;1.00;;;;;;;6.50;91.41;99145.88;8485086;33;20447;-74
2021/10/21 14:19:11;;;;;;;14.70;6.03;;;;;;;6.51;90.32;99161.75;8485718;33;20149;-74
2021/10/21 14:24:15;;;;;;;6.28;3.55;;;;;;;6.34;90.07;99165.00;8483664;33;20467;-73
2021/10/21 14:29:19;;;;;;;3.28;1.80;;;;;;;6.21;89.50;99172.31;8482562;33;20415;-73
2021/10/21 14:34:22;;;;;;;4.93;1.90;;;;;;;6.18;89.18;99192.91;8476489;33;20250;-73
2021/10/21 14:39:26;;;;;;;2.95;2.20;;;;;;;5.76;90.07;99205.25;8475957;33;20204;-73
2021/10/21 14:44:29;;;;;;;6.05;2.35;;;;;;;5.66;90.75;99223.75;8478938;33;20551;-75
2021/10/21 14:49:32;;;;;;;6.72;2.92;;;;;;;5.86;90.75;99227.50;8483879;33;20451;-74
2021/10/21 14:54:37;;;;;;;3.05;1.50;;;;;;;5.71;90.50;99250.03;8530815;33;20407;-75
2021/10/21 14:59:40;;;;;;;2.00;1.60;;;;;;;5.76;90.81;99255.88;8533892;33;20209;-74
2021/10/21 15:04:43;;;;;;;1.98;1.88;;;;;;;5.66;90.42;99260.22;8530698;33;20140;-74
2021/10/21 15:26:12;;;;;;;2.55;1.58;;;;;;;5.71;89.51;99344.16;8542642;33;20462;-74
2021/10/21 15:31:17;;;;;;;3.88;2.00;;;;;;;5.76;89.38;99351.78;8535153;33;20417;-72
2021/10/21 15:36:21;;;;;;;5.93;2.40;;;;;;;5.81;88.19;99359.41;8486606;33;20210;-73
2021/10/21 15:41:25;;;;;;;6.72;3.05;;;;;;;5.80;88.13;99363.06;8500043;33;20181;-72
2021/10/21 15:46:29;;;;;;;3.58;2.03;;;;;;;5.77;88.44;99382.78;8471775;33;20786;-72
2021/10/21 16:13:18;;;;;;;9.30;5.40;;;;;;;6.02;88.19;99440.38;8406988;33;21625;-73
2021/10/21 16:18:22;;;;;;;5.40;2.72;;;;;;;6.18;86.93;99440.91;8442034;33;20240;-71
2021/10/21 16:23:31;;;;;;;5.93;3.80;;;;;;;6.13;87.41;99451.06;8426050;34;20137;-72
2021/10/21 16:28:36;;;;;;;4.78;2.30;;;;;;;6.15;87.01;99448.31;8426491;34;20520;-72
2021/10/21 16:33:39;;;;;;;5.05;2.20;;;;;;;5.96;86.97;99454.19;8402858;34;20189;-72
2021/10/21 16:38:42;;;;;;;3.42;2.42;;;;;;;5.89;87.17;99464.47;8441859;33;20238;-72
2021/10/21 16:43:50;;;;;;;7.30;2.67;;;;;;;5.81;87.00;99458.88;8428665;34;20189;-72
2021/10/21 16:48:54;;;;;;;4.43;2.00;;;;;;;5.59;87.29;99478.28;8426671;34;20420;-72
2021/10/21 16:53:58;;;;;;;4.07;2.45;;;;;;;5.65;87.79;99488.50;8420566;33;20185;-73
2021/10/21 16:59:02;;;;;;;4.28;2.00;;;;;;;5.65;87.24;99506.28;8419873;34;21872;-73
2021/10/21 17:04:05;;;;;;;4.28;2.17;;;;;;;5.66;86.43;99506.19;8423159;34;20528;-72
2021/10/21 17:09:08;;;;;;;4.38;1.85;;;;;;;5.45;87.01;99531.72;8428586;34;20477;-73
2021/10/21 17:14:13;;;;;;;6.15;2.00;;;;;;;5.47;86.47;99536.00;8454237;33;20413;-73
2021/10/21 17:19:16;;;;;;;3.75;1.92;;;;;;;5.43;86.69;99563.81;8489218;33;20163;-73
2021/10/21 17:24:19;;;;;;;8.35;3.33;;;;;;;5.65;85.80;99579.09;8471744;33;20439;-72
2021/10/21 17:29:24;;;;;;;10.77;3.15;;;;;;;5.45;85.16;99585.84;8448368;33;20420;-73
2021/10/21 17:34:27;;;;;;;9.68;4.00;;;;;;;5.43;83.50;99594.91;8459044;33;20446;-73
2021/10/21 17:39:31;;;;;;;12.73;5.30;;;;;;;5.57;83.71;99613.44;8456224;33;20423;-72
2021/10/21 17:44:36;;;;;;;16.67;3.55;;;;;;;5.61;83.99;99630.03;8453926;33;20453;-73
2021/10/21 17:49:39;;;;;;;6.40;2.90;;;;;;;5.52;83.75;99641.38;8446310;33;20455;-73
2021/10/21 17:54:43;;;;;;;8.63;3.22;;;;;;;5.45;83.24;99665.75;8426831;33;20189;-73
2021/10/21 17:59:48;;;;;;;5.57;2.45;;;;;;;5.56;82.74;99672.16;8421497;34;21144;-73
2021/10/21 18:04:52;;;;;;;6.77;2.13;;;;;;;5.16;82.60;99677.63;8441555;33;20437;-73
2021/10/21 18:09:55;;;;;;;9.63;4.53;;;;;;;5.45;82.20;99702.22;8482938;33;20157;-75
2021/10/21 18:14:59;;;;;;;18.30;7.30;;;;;;;5.39;82.12;99713.31;8485448;33;20153;-73
2021/10/21 18:20:04;;;;;;;17.60;6.95;;;;;;;5.42;81.97;99713.09;8461873;33;20980;-73
2021/10/21 18:25:10;;;;;;;13.82;4.88;;;;;;;5.22;82.31;99733.97;8460399;33;21135;-73
2021/10/21 18:30:15;;;;;;;8.48;2.90;;;;;;;5.12;82.90;99746.19;8427123;33;20431;-74
2021/10/21 18:35:18;;;;;;;11.35;4.22;;;;;;;5.04;83.12;99767.16;8454967;33;20240;-73
2021/10/21 18:40:21;;;;;;;12.98;5.05;;;;;;;5.29;82.90;99774.31;8458911;33;20544;-73
2021/10/21 18:45:27;;;;;;;12.25;4.13;;;;;;;5.04;83.43;99773.34;8446265;33;20205;-74
2021/10/21 18:50:30;;;;;;;10.25;5.70;;;;;;;5.08;83.59;99789.13;8432823;33;20491;-74
2021/10/21 18:55:34;;;;;;;13.00;4.18;;;;;;;4.91;83.81;99795.53;8417880;33;20532;-73
2021/10/21 19:00:38;;;;;;;9.52;4.45;;;;;;;4.89;83.61;99790.31;8393768;34;20164;-73
2021/10/21 19:05:44;;;;;;;15.18;5.78;;;;;;;4.98;83.96;99792.38;8435451;33;20206;-73
2021/10/21 19:10:50;;;;;;;13.45;3.88;;;;;;;4.97;83.84;99793.31;8472090;33;20338;-73
2021/10/21 19:15:55;;;;;;;12.07;5.20;;;;;;;4.95;83.75;99815.69;8477584;33;20471;-73
2021/10/21 19:20:59;;;;;;;11.90;3.00;;;;;;;4.86;83.60;99818.97;8478393;33;20263;-74
2021/10/21 19:26:03;;;;;;;8.80;2.95;;;;;;;4.81;83.66;99832.56;8474508;33;20549;-73
2021/10/21 19:31:07;;;;;;;13.38;3.13;;;;;;;4.72;82.72;99833.19;8456113;33;20133;-73
2021/10/21 19:36:10;;;;;;;7.72;2.65;;;;;;;4.95;81.00;99850.28;8479124;33;20433;-73
2021/10/21 19:41:14;;;;;;;11.43;3.35;;;;;;;4.78;81.58;99859.38;8480174;33;20608;-74
2021/10/21 19:46:18;;;;;;;12.27;3.97;;;;;;;4.82;82.02;99861.72;8480783;33;20452;-73
2021/10/21 19:51:22;;;;;;;10.68;3.03;;;;;;;4.68;82.09;99875.06;8485847;33;20522;-74
2021/10/21 19:56:26;;;;;;;6.70;2.80;;;;;;;4.76;82.13;99890.53;8440353;33;20440;-73
2021/10/21 20:01:30;;;;;;;7.00;2.67;;;;;;;4.73;81.72;99912.03;8462212;33;20653;-74
2021/10/21 20:06:34;;;;;;;11.75;2.80;;;;;;;4.56;82.55;99891.84;8472322;33;20444;-73
2021/10/21 20:11:37;;;;;;;5.65;3.50;;;;;;;4.61;81.57;99901.22;8486342;33;20188;-74
2021/10/21 20:16:42;;;;;;;11.90;3.35;;;;;;;4.52;81.10;99898.28;8486511;33;20896;-74
2021/10/21 20:21:45;;;;;;;8.93;2.20;;;;;;;4.72;79.40;99899.69;8488348;33;20449;-73
2021/10/21 20:26:48;;;;;;;7.72;2.83;;;;;;;4.48;79.89;99912.75;8484076;33;20430;-73
2021/10/21 20:31:53;;;;;;;9.00;2.97;;;;;;;4.60;78.74;99909.28;8486739;33;21075;-74
2021/10/21 20:36:56;;;;;;;13.55;2.58;;;;;;;4.83;77.78;99927.31;8494649;33;21102;-73
2021/10/21 20:41:59;;;;;;;11.07;2.85;;;;;;;4.61;77.24;99938.47;8500934;33;20468;-74
2021/10/21 20:47:03;;;;;;;6.63;2.30;;;;;;;4.64;77.14;99933.91;8491150;33;20610;-74
2021/10/21 20:52:07;;;;;;;7.43;2.33;;;;;;;4.48;77.82;99948.16;8488678;33;20439;-73
2021/10/21 20:57:10;;;;;;;8.45;2.35;;;;;;;4.50;77.60;99940.06;8475206;33;21080;-74
2021/10/21 21:02:16;;;;;;;9.07;2.72;;;;;;;4.40;77.94;99961.94;8506780;33;20542;-74
2021/10/21 21:07:20;;;;;;;8.13;2.90;;;;;;;4.37;77.45;99959.47;8506457;33;20417;-73
2021/10/21 21:12:30;;;;;;;6.45;2.22;;;;;;;4.30;77.71;99967.91;8483314;33;20531;-74
2021/10/21 21:17:54;;;;;;;8.50;2.20;;;;;;;4.25;78.10;99975.31;8504336;33;20195;-73
2021/10/21 21:22:57;;;;;;;5.75;2.25;;;;;;;4.17;78.12;99981.13;8489284;33;22012;-73
2021/10/21 21:28:00;;;;;;;7.50;2.28;;;;;;;4.24;77.37;99993.09;8492292;33;20474;-73
2021/10/21 21:33:06;;;;;;;3.55;2.65;;;;;;;4.37;77.12;99994.03;8491368;33;20423;-74
2021/10/21 21:38:09;;;;;;;9.38;3.13;;;;;;;4.13;78.29;100006.19;8501391;33;20144;-74
2021/10/21 21:43:12;;;;;;;9.02;3.40;;;;;;;4.17;78.54;100011.22;8504637;33;20149;-73
2021/10/21 21:48:16;;;;;;;6.85;2.20;;;;;;;4.21;78.44;100011.03;8505543;33;20850;-75
2021/10/21 21:53:19;;;;;;;11.85;3.28;;;;;;;4.42;77.88;100019.53;8508533;33;20861;-73
2021/10/21 21:58:23;;;;;;;6.15;2.85;;;;;;;4.26;78.22;100015.13;8507865;33;20442;-74
2021/10/21 22:03:27;;;;;;;5.32;2.28;;;;;;;4.09;79.34;100028.59;8522327;33;20129;-74
2021/10/21 22:08:30;;;;;;;7.25;2.63;;;;;;;4.24;79.12;100024.13;8510265;33;20250;-74
2021/10/21 22:13:35;;;;;;;10.15;2.60;;;;;;;4.10;79.60;100032.94;8508850;33;20422;-74
2021/10/21 22:18:41;;;;;;;8.60;2.42;;;;;;;3.91;80.35;100033.19;8503581;33;20184;-74
2021/10/21 22:23:44;;;;;;;11.80;3.33;;;;;;;4.17;79.56;100044.94;8507633;33;20433;-74
2021/10/21 22:28:48;;;;;;;7.82;2.50;;;;;;;4.11;79.02;100046.16;8506039;33;21190;-74
2021/10/21 22:33:54;;;;;;;9.07;2.58;;;;;;;4.14;78.90;100038.00;8502352;33;20339;-74
2021/10/21 22:38:57;;;;;;;10.60;2.55;;;;;;;3.97;79.32;100054.06;8504049;33;20414;-74
2021/10/21 22:44:21;;;;;;;8.48;2.80;;;;;;;3.89;79.95;100059.81;8494745;33;20206;-74
2021/10/21 22:49:25;;;;;;;3.38;1.88;;;;;;;3.80;80.00;100072.81;8503320;33;21033;-74
2021/10/21 22:54:29;;;;;;;7.93;2.60;;;;;;;4.14;78.74;100066.34;8467813;33;21251;-74
2021/10/21 22:59:35;;;;;;;8.23;2.42;;;;;;;3.84;79.40;100077.88;8488128;33;22246;-74
2021/10/21 23:04:46;;;;;;;4.85;2.03;;;;;;;3.75;80.24;100088.16;8488017;33;20422;-73
2021/10/21 23:09:50;;;;;;;13.07;3.28;;;;;;;3.94;79.35;100080.81;8489106;33;21896;-73
2021/10/21 23:14:54;;;;;;;9.15;2.33;;;;;;;3.75;80.57;100093.47;8483717;33;20210;-75
2021/10/21 23:19:58;;;;;;;5.60;2.67;;;;;;;3.80;80.27;100102.03;8486616;33;20149;-73
2021/10/21 23:25:03;;;;;;;6.20;2.50;;;;;;;3.84;79.51;100107.09;8488115;33;20184;-74
2021/10/21 23:30:08;;;;;;;5.95;1.80;;;;;;;3.65;80.53;100111.75;8486437;33;20449;-74
2021/10/21 23:35:12;;;;;;;11.20;2.60;;;;;;;3.73;80.59;100112.16;8494994;33;20293;-73
2021/10/21 23:40:15;;;;;;;9.10;2.05;;;;;;;3.75;80.73;100110.25;8499693;33;20437;-74
2021/10/21 23:45:19;;;;;;;9.23;2.45;;;;;;;3.55;81.60;100111.41;8498864;33;20464;-73
2021/10/21 23:50:23;;;;;;;6.65;2.08;;;;;;;3.81;80.60;100098.41;8486597;33;20190;-74
2021/10/21 23:55:26;;;;;;;7.57;2.08;;;;;;;3.55;81.41;100099.91;8486280;33;21049;-74
